UAE368 OMDB-WADD
Flight info
| Callsign | UAE368 |
|---|---|
| Flight time | N/A |
| Altitude | 35000 |
| Route | ANVIX L223 TARDI N629 GIDAN DCT PARAR N571 IDASO/N0495F370 N571 GUNIP M630 JUNHA M635 SURGA/N0489F390 M635 UDONO |
| Aircraft | A388/J-SADE2E3FGHIJ3J4J5M1RWXY/LB1D1 |
Departure
| Time | 2026-05-05 00:45 |
|---|---|
| Airport | Dubai International Airport (OMDB) |
Arrival
| Time | N/A |
|---|---|
| Airport | Denpasar I Gusti Ngurah Rai International Airport (WADD) |
| Time | Latitude | Longitude | Altitude | Speed | Heading |
|---|---|---|---|---|---|
| 2026-05-05 00:26 | 25.24844 | 55.36373 | 26 ft | 0 kts | 211° |
| 2026-05-05 00:28 | 25.24845 | 55.36374 | 26 ft | 0 kts | 211° |
| 2026-05-05 00:29 | 25.24851 | 55.36378 | 32 ft | 1 kts | 212° |
| 2026-05-05 00:30 | 25.24866 | 55.36388 | 28 ft | 3 kts | 214° |
| 2026-05-05 00:30 | 25.24881 | 55.36400 | 32 ft | 3 kts | 216° |
| 2026-05-05 00:30 | 25.24899 | 55.36408 | 32 ft | 3 kts | 186° |
| 2026-05-05 00:30 | 25.24917 | 55.36404 | 32 ft | 3 kts | 156° |
| 2026-05-05 00:31 | 25.24931 | 55.36389 | 32 ft | 3 kts | 125° |
| 2026-05-05 00:31 | 25.24934 | 55.36383 | 32 ft | 0 kts | 116° |
| 2026-05-05 00:36 | 25.24931 | 55.36389 | 32 ft | 3 kts | 116° |
| 2026-05-05 00:36 | 25.24913 | 55.36430 | 27 ft | 9 kts | 116° |
| 2026-05-05 00:36 | 25.24889 | 55.36500 | 28 ft | 10 kts | 82° |
| 2026-05-05 00:36 | 25.24902 | 55.36594 | 26 ft | 14 kts | 81° |
| 2026-05-05 00:37 | 25.24889 | 55.36698 | 26 ft | 14 kts | 114° |
| 2026-05-05 00:37 | 25.24858 | 55.36803 | 27 ft | 15 kts | 105° |
| 2026-05-05 00:37 | 25.24823 | 55.36909 | 27 ft | 15 kts | 121° |
| 2026-05-05 00:37 | 25.24765 | 55.37009 | 27 ft | 16 kts | 123° |
| 2026-05-05 00:38 | 25.24707 | 55.37110 | 27 ft | 14 kts | 121° |
| 2026-05-05 00:38 | 25.24655 | 55.37205 | 27 ft | 15 kts | 121° |
| 2026-05-05 00:38 | 25.24619 | 55.37271 | 26 ft | 15 kts | 121° |
| 2026-05-05 00:38 | 25.24562 | 55.37374 | 26 ft | 16 kts | 122° |
| 2026-05-05 00:39 | 25.24503 | 55.37479 | 26 ft | 16 kts | 122° |
| 2026-05-05 00:39 | 25.24442 | 55.37586 | 29 ft | 17 kts | 122° |
| 2026-05-05 00:39 | 25.24388 | 55.37680 | 26 ft | 10 kts | 122° |
| 2026-05-05 00:39 | 25.24334 | 55.37775 | 26 ft | 9 kts | 122° |
| 2026-05-05 00:40 | 25.24323 | 55.37811 | 26 ft | 6 kts | 77° |
| 2026-05-05 00:40 | 25.24342 | 55.37834 | 27 ft | 5 kts | 32° |
| 2026-05-05 00:40 | 25.24367 | 55.37851 | 27 ft | 0 kts | 32° |
| 2026-05-05 00:41 | 25.24367 | 55.37852 | 27 ft | 0 kts | 32° |
| 2026-05-05 00:41 | 25.24376 | 55.37858 | 27 ft | 3 kts | 33° |
| 2026-05-05 00:41 | 25.24401 | 55.37876 | 28 ft | 6 kts | 33° |
| 2026-05-05 00:42 | 25.24454 | 55.37913 | 29 ft | 11 kts | 33° |
| 2026-05-05 00:42 | 25.24525 | 55.37967 | 29 ft | 14 kts | 36° |
| 2026-05-05 00:42 | 25.24614 | 55.38038 | 28 ft | 17 kts | 36° |
| 2026-05-05 00:42 | 25.24691 | 55.38092 | 30 ft | 11 kts | 28° |
| 2026-05-05 00:43 | 25.24740 | 55.38121 | 31 ft | 6 kts | 18° |
| 2026-05-05 00:43 | 25.24757 | 55.38120 | 31 ft | 1 kts | 321° |
| 2026-05-05 00:43 | 25.24760 | 55.38117 | 31 ft | 0 kts | 303° |
| 2026-05-05 00:43 | 25.24762 | 55.38113 | 31 ft | 2 kts | 302° |
| 2026-05-05 00:44 | 25.24780 | 55.38081 | 31 ft | 9 kts | 300° |
| 2026-05-05 00:44 | 25.24893 | 55.37872 | 31 ft | 66 kts | 302° |
| 2026-05-05 00:44 | 25.25264 | 55.37212 | 32 ft | 132 kts | 301° |
| 2026-05-05 00:44 | 25.25827 | 55.36187 | 36 ft | 175 kts | 301° |
| 2026-05-05 00:45 | 25.26477 | 55.35001 | 388 ft | 180 kts | 299° |
| 2026-05-05 00:45 | 25.27129 | 55.33810 | 804 ft | 182 kts | 300° |
| 2026-05-05 00:45 | 25.27800 | 55.32593 | 1186 ft | 188 kts | 301° |
| 2026-05-05 00:45 | 25.28486 | 55.31350 | 1615 ft | 190 kts | 302° |
| 2026-05-05 00:46 | 25.29165 | 55.30089 | 1947 ft | 192 kts | 297° |
| 2026-05-05 00:46 | 25.29356 | 55.28642 | 2223 ft | 195 kts | 257° |
| 2026-05-05 00:46 | 25.28698 | 55.27350 | 2541 ft | 196 kts | 232° |
| 2026-05-05 00:46 | 25.27937 | 55.26059 | 2668 ft | 204 kts | 242° |
| 2026-05-05 00:47 | 25.27256 | 55.24664 | 2834 ft | 207 kts | 245° |
| 2026-05-05 00:47 | 25.26661 | 55.23209 | 3043 ft | 208 kts | 249° |
| 2026-05-05 00:47 | 25.26112 | 55.21737 | 3314 ft | 206 kts | 250° |
| 2026-05-05 00:47 | 25.25578 | 55.20273 | 3584 ft | 205 kts | 250° |
| 2026-05-05 00:48 | 25.25426 | 55.19855 | 3607 ft | 208 kts | 250° |
| 2026-05-05 00:48 | 25.25362 | 55.19685 | 3599 ft | 210 kts | 250° |
| 2026-05-05 00:48 | 25.24756 | 55.18172 | 3605 ft | 221 kts | 239° |
| 2026-05-05 00:48 | 25.23643 | 55.16951 | 3709 ft | 238 kts | 210° |
| 2026-05-05 00:49 | 25.22042 | 55.16423 | 3928 ft | 254 kts | 182° |
| 2026-05-05 00:49 | 25.20200 | 55.16566 | 4202 ft | 269 kts | 170° |
| 2026-05-05 00:49 | 25.18471 | 55.17252 | 4711 ft | 270 kts | 146° |
| 2026-05-05 00:49 | 25.17100 | 55.18645 | 5242 ft | 269 kts | 121° |
| 2026-05-05 00:50 | 25.16269 | 55.20525 | 5530 ft | 281 kts | 108° |
| 2026-05-05 00:50 | 25.15592 | 55.22614 | 5774 ft | 293 kts | 107° |
| 2026-05-05 00:50 | 25.14818 | 55.24683 | 6462 ft | 290 kts | 112° |
| 2026-05-05 00:50 | 25.13924 | 55.26688 | 7012 ft | 292 kts | 115° |
| 2026-05-05 00:51 | 25.12979 | 55.28663 | 7636 ft | 291 kts | 116° |
| 2026-05-05 00:51 | 25.12014 | 55.30644 | 8146 ft | 294 kts | 116° |
| 2026-05-05 00:51 | 25.11042 | 55.32641 | 8666 ft | 297 kts | 116° |
| 2026-05-05 00:51 | 25.10143 | 55.34693 | 9204 ft | 298 kts | 112° |
| 2026-05-05 00:52 | 25.09286 | 55.36792 | 9737 ft | 301 kts | 112° |
| 2026-05-05 00:52 | 25.08417 | 55.38902 | 10211 ft | 304 kts | 113° |
| 2026-05-05 00:52 | 25.07537 | 55.41035 | 10684 ft | 307 kts | 113° |
| 2026-05-05 00:52 | 25.06651 | 55.43206 | 11021 ft | 316 kts | 112° |
| 2026-05-05 00:53 | 25.05770 | 55.45488 | 11155 ft | 331 kts | 111° |
| 2026-05-05 00:53 | 25.04860 | 55.47890 | 11290 ft | 346 kts | 111° |
| 2026-05-05 00:53 | 25.03924 | 55.50351 | 11441 ft | 359 kts | 112° |
| 2026-05-05 00:53 | 25.02931 | 55.52943 | 11811 ft | 365 kts | 112° |
| 2026-05-05 00:54 | 25.01906 | 55.55508 | 12300 ft | 367 kts | 117° |
| 2026-05-05 00:54 | 25.00635 | 55.57920 | 12745 ft | 370 kts | 121° |
| 2026-05-05 00:54 | 24.99295 | 55.60365 | 13217 ft | 374 kts | 121° |
| 2026-05-05 00:54 | 24.97958 | 55.62834 | 13683 ft | 377 kts | 121° |
| 2026-05-05 00:55 | 24.96620 | 55.65315 | 14105 ft | 379 kts | 121° |
| 2026-05-05 00:55 | 24.95275 | 55.67808 | 14559 ft | 381 kts | 121° |
| 2026-05-05 00:55 | 24.93884 | 55.70310 | 14971 ft | 384 kts | 125° |
| 2026-05-05 00:55 | 24.92302 | 55.72687 | 15402 ft | 386 kts | 127° |
| 2026-05-05 00:56 | 24.90709 | 55.75076 | 15841 ft | 388 kts | 127° |
| 2026-05-05 00:56 | 24.89111 | 55.77487 | 16266 ft | 391 kts | 127° |
| 2026-05-05 00:56 | 24.87501 | 55.79918 | 16687 ft | 394 kts | 127° |
| 2026-05-05 00:56 | 24.85879 | 55.82366 | 17108 ft | 396 kts | 127° |
| 2026-05-05 00:57 | 24.84252 | 55.84819 | 17581 ft | 398 kts | 127° |
| 2026-05-05 00:57 | 24.82606 | 55.87282 | 17999 ft | 401 kts | 128° |
| 2026-05-05 00:57 | 24.80934 | 55.89749 | 18371 ft | 403 kts | 128° |
| 2026-05-05 00:57 | 24.79249 | 55.92227 | 18714 ft | 405 kts | 128° |
| 2026-05-05 00:58 | 24.77448 | 55.94558 | 19080 ft | 406 kts | 136° |
| 2026-05-05 00:58 | 24.75381 | 55.96686 | 19429 ft | 408 kts | 139° |
| 2026-05-05 00:58 | 24.73291 | 55.98813 | 19778 ft | 410 kts | 139° |
| 2026-05-05 00:58 | 24.71204 | 56.00960 | 20117 ft | 412 kts | 139° |
| 2026-05-05 00:59 | 24.69105 | 56.03121 | 20487 ft | 414 kts | 139° |
| 2026-05-05 00:59 | 24.67005 | 56.05285 | 20822 ft | 416 kts | 138° |
| 2026-05-05 00:59 | 24.64885 | 56.07470 | 21175 ft | 418 kts | 138° |
| 2026-05-05 00:59 | 24.62760 | 56.09660 | 21524 ft | 420 kts | 138° |
| 2026-05-05 01:00 | 24.60623 | 56.11861 | 21865 ft | 423 kts | 138° |
| 2026-05-05 01:00 | 24.58468 | 56.14077 | 22192 ft | 425 kts | 139° |
| 2026-05-05 01:00 | 24.56378 | 56.16378 | 22524 ft | 428 kts | 132° |
| 2026-05-05 01:00 | 24.54439 | 56.18879 | 22858 ft | 431 kts | 132° |
| 2026-05-05 01:01 | 24.52486 | 56.21382 | 23190 ft | 433 kts | 132° |
| 2026-05-05 01:01 | 24.50515 | 56.23893 | 23504 ft | 435 kts | 132° |
| 2026-05-05 01:01 | 24.48558 | 56.26382 | 23757 ft | 437 kts | 132° |
| 2026-05-05 01:01 | 24.46567 | 56.28913 | 24023 ft | 439 kts | 132° |
| 2026-05-05 01:02 | 24.44571 | 56.31452 | 24270 ft | 441 kts | 132° |
| 2026-05-05 01:02 | 24.42564 | 56.34003 | 24519 ft | 443 kts | 132° |
| 2026-05-05 01:02 | 24.40544 | 56.36568 | 24758 ft | 445 kts | 132° |
| 2026-05-05 01:02 | 24.38511 | 56.39149 | 25010 ft | 447 kts | 133° |
| 2026-05-05 01:03 | 24.36475 | 56.41733 | 25255 ft | 449 kts | 133° |
| 2026-05-05 01:03 | 24.34424 | 56.44335 | 25523 ft | 451 kts | 133° |
| 2026-05-05 01:03 | 24.32366 | 56.46945 | 25772 ft | 453 kts | 133° |
| 2026-05-05 01:03 | 24.30298 | 56.49567 | 26028 ft | 456 kts | 132° |
| 2026-05-05 01:04 | 24.28375 | 56.52344 | 26291 ft | 459 kts | 127° |
| 2026-05-05 01:04 | 24.24616 | 56.58043 | 26833 ft | 464 kts | 128° |
| 2026-05-05 01:04 | 24.22710 | 56.60914 | 27074 ft | 467 kts | 128° |
| 2026-05-05 01:05 | 24.20791 | 56.63800 | 27396 ft | 469 kts | 128° |
| 2026-05-05 01:05 | 24.18868 | 56.66693 | 27698 ft | 472 kts | 128° |
| 2026-05-05 01:05 | 24.16933 | 56.69601 | 28005 ft | 474 kts | 128° |
| 2026-05-05 01:05 | 24.14982 | 56.72533 | 28322 ft | 477 kts | 128° |
| 2026-05-05 01:06 | 24.13023 | 56.75476 | 28630 ft | 479 kts | 128° |
| 2026-05-05 01:06 | 24.11053 | 56.78432 | 28942 ft | 482 kts | 128° |
| 2026-05-05 01:06 | 24.09094 | 56.81370 | 29251 ft | 485 kts | 128° |
| 2026-05-05 01:06 | 24.07101 | 56.84358 | 29573 ft | 488 kts | 128° |
| 2026-05-05 01:07 | 24.05098 | 56.87359 | 29943 ft | 489 kts | 128° |
| 2026-05-05 01:07 | 24.03086 | 56.90373 | 30234 ft | 491 kts | 128° |
| 2026-05-05 01:07 | 24.01066 | 56.93392 | 30516 ft | 494 kts | 128° |
| 2026-05-05 01:07 | 23.99033 | 56.96429 | 30803 ft | 496 kts | 128° |
| 2026-05-05 01:08 | 23.96986 | 56.99484 | 31098 ft | 499 kts | 128° |
| 2026-05-05 01:08 | 23.94930 | 57.02551 | 31386 ft | 501 kts | 128° |
| 2026-05-05 01:08 | 23.92863 | 57.05633 | 31676 ft | 503 kts | 128° |
| 2026-05-05 01:08 | 23.90786 | 57.08728 | 31951 ft | 506 kts | 128° |
| 2026-05-05 01:09 | 23.88702 | 57.11832 | 32246 ft | 508 kts | 128° |
| 2026-05-05 01:09 | 23.86605 | 57.14955 | 32501 ft | 511 kts | 128° |
| 2026-05-05 01:09 | 23.84497 | 57.18092 | 32800 ft | 513 kts | 128° |
| 2026-05-05 01:09 | 23.82382 | 57.21239 | 33085 ft | 515 kts | 128° |
| 2026-05-05 01:10 | 23.80255 | 57.24401 | 33353 ft | 517 kts | 128° |
| 2026-05-05 01:10 | 23.78119 | 57.27574 | 33634 ft | 520 kts | 128° |
| 2026-05-05 01:10 | 23.75974 | 57.30758 | 33894 ft | 522 kts | 128° |
| 2026-05-05 01:10 | 23.73817 | 57.33959 | 34151 ft | 524 kts | 128° |
| 2026-05-05 01:11 | 23.71653 | 57.37166 | 34398 ft | 526 kts | 129° |
| 2026-05-05 01:11 | 23.69416 | 57.40330 | 34668 ft | 526 kts | 131° |
| 2026-05-05 01:11 | 23.67125 | 57.43448 | 34778 ft | 529 kts | 131° |
| 2026-05-05 01:11 | 23.64816 | 57.46574 | 34794 ft | 528 kts | 131° |
| 2026-05-05 01:12 | 23.60237 | 57.52817 | 34785 ft | 528 kts | 130° |
| 2026-05-05 01:12 | 23.55692 | 57.59046 | 34804 ft | 528 kts | 130° |
| 2026-05-05 01:13 | 23.51129 | 57.65301 | 34803 ft | 528 kts | 130° |
| 2026-05-05 01:13 | 23.46548 | 57.71571 | 34810 ft | 528 kts | 131° |
| 2026-05-05 01:14 | 23.41973 | 57.77820 | 34814 ft | 527 kts | 131° |
| 2026-05-05 01:14 | 23.37400 | 57.84059 | 34810 ft | 527 kts | 131° |
| 2026-05-05 01:15 | 23.32818 | 57.90301 | 34817 ft | 527 kts | 131° |
| 2026-05-05 01:15 | 23.28241 | 57.96527 | 34781 ft | 527 kts | 130° |
| 2026-05-05 01:16 | 23.23732 | 58.02813 | 34789 ft | 528 kts | 126° |
| 2026-05-05 01:16 | 23.19593 | 58.09413 | 34782 ft | 528 kts | 126° |
| 2026-05-05 01:17 | 23.15434 | 58.15999 | 34789 ft | 528 kts | 126° |
| 2026-05-05 01:17 | 23.11268 | 58.22581 | 34782 ft | 529 kts | 126° |
| 2026-05-05 01:18 | 23.07118 | 58.29130 | 34797 ft | 529 kts | 126° |
| 2026-05-05 01:18 | 23.03274 | 58.35948 | 34808 ft | 531 kts | 115° |
| 2026-05-05 01:19 | 23.01131 | 58.43620 | 34816 ft | 534 kts | 99° |
| 2026-05-05 01:19 | 23.00281 | 58.51629 | 34805 ft | 534 kts | 97° |
| 2026-05-05 01:20 | 22.99419 | 58.59628 | 34792 ft | 534 kts | 97° |
| 2026-05-05 01:20 | 22.98553 | 58.67635 | 34790 ft | 533 kts | 97° |
| 2026-05-05 01:21 | 22.97686 | 58.75631 | 34794 ft | 534 kts | 97° |
| 2026-05-05 01:21 | 22.96815 | 58.83633 | 34786 ft | 534 kts | 97° |
| 2026-05-05 01:22 | 22.95939 | 58.91634 | 34780 ft | 533 kts | 97° |
| 2026-05-05 01:22 | 22.95067 | 58.99561 | 34776 ft | 533 kts | 97° |
| 2026-05-05 01:23 | 22.94184 | 59.07540 | 34760 ft | 533 kts | 97° |
| 2026-05-05 01:23 | 22.93301 | 59.15509 | 34771 ft | 532 kts | 97° |
| 2026-05-05 01:24 | 22.92413 | 59.23469 | 34770 ft | 532 kts | 97° |
| 2026-05-05 01:24 | 22.91520 | 59.31433 | 34754 ft | 532 kts | 97° |
| 2026-05-05 01:25 | 22.90623 | 59.39406 | 34734 ft | 532 kts | 97° |
| 2026-05-05 01:25 | 22.89721 | 59.47379 | 34748 ft | 532 kts | 97° |
| 2026-05-05 01:26 | 22.88969 | 59.54009 | 34734 ft | 533 kts | 97° |
| 2026-05-05 01:26 | 22.88059 | 59.61985 | 34731 ft | 533 kts | 97° |
| 2026-05-05 01:27 | 22.86996 | 59.71262 | 34731 ft | 534 kts | 97° |
| 2026-05-05 01:27 | 22.86226 | 59.77954 | 34741 ft | 534 kts | 97° |
| 2026-05-05 01:28 | 22.85303 | 59.85943 | 34751 ft | 534 kts | 97° |
| 2026-05-05 01:28 | 22.84376 | 59.93934 | 34750 ft | 534 kts | 97° |
| 2026-05-05 01:29 | 22.83451 | 60.01870 | 34774 ft | 533 kts | 97° |
| 2026-05-05 01:29 | 22.82517 | 60.09841 | 34772 ft | 532 kts | 97° |
| 2026-05-05 01:30 | 22.81580 | 60.17811 | 34777 ft | 532 kts | 97° |
| 2026-05-05 01:30 | 22.80641 | 60.25762 | 34761 ft | 532 kts | 97° |
| 2026-05-05 01:31 | 22.79698 | 60.33709 | 34762 ft | 531 kts | 97° |
| 2026-05-05 01:31 | 22.78757 | 60.41609 | 34765 ft | 532 kts | 97° |
| 2026-05-05 01:32 | 22.77806 | 60.49556 | 34767 ft | 532 kts | 97° |
| 2026-05-05 01:32 | 22.76850 | 60.57514 | 34771 ft | 532 kts | 97° |
| 2026-05-05 01:33 | 22.75889 | 60.65476 | 34778 ft | 533 kts | 97° |
| 2026-05-05 01:33 | 22.74926 | 60.73427 | 34780 ft | 533 kts | 97° |
| 2026-05-05 01:34 | 22.73955 | 60.81399 | 34776 ft | 534 kts | 97° |
| 2026-05-05 01:34 | 22.72981 | 60.89371 | 34787 ft | 533 kts | 97° |
| 2026-05-05 01:35 | 22.72011 | 60.97274 | 34789 ft | 533 kts | 98° |
| 2026-05-05 01:35 | 22.71030 | 61.05233 | 34789 ft | 533 kts | 98° |
| 2026-05-05 01:36 | 22.70045 | 61.13192 | 34782 ft | 533 kts | 98° |
| 2026-05-05 01:36 | 22.69057 | 61.21150 | 34783 ft | 533 kts | 98° |
| 2026-05-05 01:37 | 22.68063 | 61.29111 | 34788 ft | 533 kts | 98° |
| 2026-05-05 01:37 | 22.67066 | 61.37068 | 34785 ft | 533 kts | 98° |
| 2026-05-05 01:38 | 22.66064 | 61.45034 | 34788 ft | 534 kts | 98° |
| 2026-05-05 01:38 | 22.65066 | 61.52938 | 34791 ft | 534 kts | 98° |
| 2026-05-05 01:39 | 22.64056 | 61.60898 | 34796 ft | 534 kts | 98° |
| 2026-05-05 01:39 | 22.63042 | 61.68863 | 34798 ft | 534 kts | 98° |
| 2026-05-05 01:40 | 22.62024 | 61.76828 | 34797 ft | 534 kts | 98° |
| 2026-05-05 01:40 | 22.61001 | 61.84802 | 34800 ft | 534 kts | 98° |
| 2026-05-05 01:41 | 22.59974 | 61.92767 | 34807 ft | 534 kts | 98° |
| 2026-05-05 01:41 | 22.58944 | 62.00726 | 34800 ft | 534 kts | 98° |
| 2026-05-05 01:42 | 22.57910 | 62.08687 | 34801 ft | 534 kts | 98° |
| 2026-05-05 01:42 | 22.56872 | 62.16648 | 34799 ft | 534 kts | 98° |
| 2026-05-05 01:43 | 22.55830 | 62.24608 | 34804 ft | 534 kts | 98° |
| 2026-05-05 01:43 | 22.54783 | 62.32572 | 34805 ft | 534 kts | 98° |
| 2026-05-05 01:44 | 22.53739 | 62.40485 | 34811 ft | 534 kts | 98° |
| 2026-05-05 01:44 | 22.52684 | 62.48453 | 34810 ft | 534 kts | 98° |
| 2026-05-05 01:45 | 22.51626 | 62.56408 | 34810 ft | 534 kts | 98° |
| 2026-05-05 01:45 | 22.50564 | 62.64365 | 34812 ft | 534 kts | 98° |
| 2026-05-05 01:46 | 22.49499 | 62.72314 | 34819 ft | 534 kts | 98° |
| 2026-05-05 01:46 | 22.48432 | 62.80249 | 34820 ft | 533 kts | 98° |
| 2026-05-05 01:47 | 22.47361 | 62.88180 | 34810 ft | 533 kts | 98° |
| 2026-05-05 01:47 | 22.46288 | 62.96099 | 34811 ft | 533 kts | 98° |
| 2026-05-05 01:48 | 22.45219 | 63.03982 | 34810 ft | 533 kts | 98° |
| 2026-05-05 01:48 | 22.43625 | 63.11793 | 34811 ft | 532 kts | 108° |
| 2026-05-05 01:49 | 22.40811 | 63.19178 | 34810 ft | 531 kts | 117° |
| 2026-05-05 01:49 | 22.37573 | 63.26365 | 34812 ft | 532 kts | 117° |
| 2026-05-05 01:50 | 22.34358 | 63.33574 | 34810 ft | 532 kts | 116° |
| 2026-05-05 01:50 | 22.31135 | 63.40771 | 34826 ft | 532 kts | 117° |
| 2026-05-05 01:51 | 22.27906 | 63.47963 | 34818 ft | 532 kts | 117° |
| 2026-05-05 01:51 | 22.24670 | 63.55156 | 34820 ft | 532 kts | 117° |
| 2026-05-05 01:52 | 22.21431 | 63.62346 | 34819 ft | 533 kts | 117° |
| 2026-05-05 01:52 | 22.18189 | 63.69532 | 34820 ft | 533 kts | 117° |
| 2026-05-05 01:53 | 22.14946 | 63.76710 | 34811 ft | 533 kts | 117° |
| 2026-05-05 01:53 | 22.11694 | 63.83897 | 34820 ft | 532 kts | 117° |
| 2026-05-05 01:54 | 22.08445 | 63.91068 | 34816 ft | 532 kts | 117° |
| 2026-05-05 01:54 | 22.05211 | 63.98196 | 34813 ft | 532 kts | 117° |
| 2026-05-05 01:55 | 22.01961 | 64.05350 | 34821 ft | 532 kts | 117° |
| 2026-05-05 01:55 | 21.98696 | 64.12524 | 34813 ft | 532 kts | 117° |
| 2026-05-05 01:56 | 21.95434 | 64.19684 | 34815 ft | 532 kts | 117° |
| 2026-05-05 01:56 | 21.92167 | 64.26843 | 34816 ft | 532 kts | 117° |
| 2026-05-05 01:57 | 21.88926 | 64.33935 | 34824 ft | 531 kts | 117° |
| 2026-05-05 01:57 | 21.85658 | 64.41077 | 34818 ft | 531 kts | 117° |
| 2026-05-05 01:58 | 21.82391 | 64.48206 | 34819 ft | 531 kts | 117° |
| 2026-05-05 01:58 | 21.79117 | 64.55342 | 34822 ft | 531 kts | 117° |
| 2026-05-05 01:59 | 21.75843 | 64.62468 | 34821 ft | 531 kts | 117° |
| 2026-05-05 01:59 | 21.72569 | 64.69584 | 34822 ft | 531 kts | 117° |
| 2026-05-05 02:00 | 21.69288 | 64.76704 | 34822 ft | 531 kts | 117° |
| 2026-05-05 02:00 | 21.66006 | 64.83816 | 34830 ft | 530 kts | 117° |
| 2026-05-05 02:01 | 21.62725 | 64.90918 | 34831 ft | 530 kts | 117° |
| 2026-05-05 02:01 | 21.59463 | 64.97969 | 34832 ft | 530 kts | 117° |
| 2026-05-05 02:02 | 21.56177 | 65.05061 | 34823 ft | 531 kts | 117° |
| 2026-05-05 02:02 | 21.52884 | 65.12158 | 34826 ft | 531 kts | 117° |
| 2026-05-05 02:03 | 21.49586 | 65.19258 | 34826 ft | 531 kts | 117° |
| 2026-05-05 02:03 | 21.46280 | 65.26363 | 34848 ft | 531 kts | 117° |
| 2026-05-05 02:04 | 21.42978 | 65.33451 | 34831 ft | 531 kts | 117° |
| 2026-05-05 02:04 | 21.39692 | 65.40496 | 34829 ft | 531 kts | 117° |
| 2026-05-05 02:05 | 21.36380 | 65.47587 | 34833 ft | 531 kts | 117° |
| 2026-05-05 02:05 | 21.33063 | 65.54678 | 34835 ft | 531 kts | 117° |
| 2026-05-05 02:06 | 21.29746 | 65.61761 | 34843 ft | 531 kts | 117° |
| 2026-05-05 02:06 | 21.26415 | 65.68862 | 34829 ft | 532 kts | 117° |
| 2026-05-05 02:07 | 21.23088 | 65.75946 | 34834 ft | 532 kts | 117° |
| 2026-05-05 02:07 | 21.19759 | 65.83027 | 34834 ft | 532 kts | 117° |
| 2026-05-05 02:08 | 21.16430 | 65.90096 | 34849 ft | 531 kts | 117° |
| 2026-05-05 02:08 | 21.13101 | 65.97162 | 34838 ft | 531 kts | 117° |
| 2026-05-05 02:09 | 21.09814 | 66.04202 | 34837 ft | 531 kts | 117° |
| 2026-05-05 02:09 | 21.06597 | 66.11325 | 34839 ft | 531 kts | 116° |
| 2026-05-05 02:10 | 21.03371 | 66.18455 | 34844 ft | 532 kts | 116° |
| 2026-05-05 02:10 | 21.00135 | 66.25573 | 34837 ft | 532 kts | 117° |
| 2026-05-05 02:11 | 20.96894 | 66.32683 | 34838 ft | 532 kts | 117° |
| 2026-05-05 02:11 | 20.93645 | 66.39799 | 34835 ft | 532 kts | 117° |
| 2026-05-05 02:12 | 20.88771 | 66.50458 | 34835 ft | 532 kts | 117° |
| 2026-05-05 02:13 | 20.85517 | 66.57561 | 34840 ft | 532 kts | 117° |
| 2026-05-05 02:13 | 20.82281 | 66.64616 | 34842 ft | 532 kts | 117° |
| 2026-05-05 02:14 | 20.79552 | 66.70560 | 34855 ft | 532 kts | 117° |
| 2026-05-05 02:14 | 20.75759 | 66.78809 | 34848 ft | 532 kts | 117° |
| 2026-05-05 02:15 | 20.72493 | 66.85900 | 34849 ft | 532 kts | 117° |
| 2026-05-05 02:15 | 20.69755 | 66.91840 | 34832 ft | 532 kts | 117° |
| 2026-05-05 02:16 | 20.66500 | 66.98891 | 34835 ft | 532 kts | 117° |
| 2026-05-05 02:16 | 20.63224 | 67.05978 | 34849 ft | 532 kts | 117° |
| 2026-05-05 02:17 | 20.59942 | 67.13069 | 34855 ft | 532 kts | 117° |
| 2026-05-05 02:17 | 20.56657 | 67.20158 | 34857 ft | 533 kts | 117° |
| 2026-05-05 02:18 | 20.53370 | 67.27242 | 34852 ft | 533 kts | 117° |
| 2026-05-05 02:18 | 20.50075 | 67.34333 | 34859 ft | 533 kts | 117° |
| 2026-05-05 02:19 | 20.46778 | 67.41420 | 34864 ft | 533 kts | 117° |
| 2026-05-05 02:19 | 20.43472 | 67.48516 | 34861 ft | 534 kts | 117° |
| 2026-05-05 02:20 | 20.40184 | 67.55564 | 34845 ft | 534 kts | 117° |
| 2026-05-05 02:20 | 20.36873 | 67.62655 | 34843 ft | 534 kts | 117° |
| 2026-05-05 02:21 | 20.33558 | 67.69741 | 34843 ft | 534 kts | 117° |
| 2026-05-05 02:21 | 20.30239 | 67.76830 | 34863 ft | 534 kts | 117° |
| 2026-05-05 02:22 | 20.26922 | 67.83905 | 34858 ft | 534 kts | 117° |
| 2026-05-05 02:22 | 20.23599 | 67.90983 | 34859 ft | 533 kts | 117° |
| 2026-05-05 02:23 | 20.20281 | 67.98041 | 34857 ft | 533 kts | 117° |
| 2026-05-05 02:23 | 20.16963 | 68.05090 | 34854 ft | 533 kts | 117° |
| 2026-05-05 02:24 | 20.13638 | 68.12147 | 34854 ft | 532 kts | 117° |
| 2026-05-05 02:24 | 20.10317 | 68.19184 | 34862 ft | 532 kts | 117° |
| 2026-05-05 02:25 | 20.07015 | 68.26173 | 34848 ft | 532 kts | 117° |
| 2026-05-05 02:25 | 20.03684 | 68.33215 | 34863 ft | 532 kts | 117° |
| 2026-05-05 02:26 | 20.00355 | 68.40242 | 34862 ft | 532 kts | 117° |
| 2026-05-05 02:26 | 19.97019 | 68.47277 | 34860 ft | 532 kts | 117° |
| 2026-05-05 02:27 | 19.93686 | 68.54295 | 34860 ft | 532 kts | 117° |
| 2026-05-05 02:27 | 19.90352 | 68.61308 | 34856 ft | 532 kts | 117° |
| 2026-05-05 02:28 | 19.87012 | 68.68325 | 34854 ft | 532 kts | 117° |
| 2026-05-05 02:28 | 19.83690 | 68.75295 | 34859 ft | 532 kts | 117° |
| 2026-05-05 02:29 | 19.80345 | 68.82304 | 34867 ft | 531 kts | 117° |
| 2026-05-05 02:29 | 19.77002 | 68.89300 | 34871 ft | 531 kts | 117° |
| 2026-05-05 02:30 | 19.73659 | 68.96289 | 34866 ft | 531 kts | 117° |
| 2026-05-05 02:30 | 19.70312 | 69.03277 | 34869 ft | 531 kts | 117° |
| 2026-05-05 02:31 | 19.66962 | 69.10261 | 34870 ft | 531 kts | 117° |
| 2026-05-05 02:31 | 19.63610 | 69.17244 | 34868 ft | 531 kts | 117° |
| 2026-05-05 02:32 | 19.60256 | 69.24220 | 34862 ft | 531 kts | 117° |
| 2026-05-05 02:32 | 19.56900 | 69.31198 | 34857 ft | 531 kts | 117° |
| 2026-05-05 02:33 | 19.53564 | 69.38182 | 34876 ft | 531 kts | 116° |
| 2026-05-05 02:33 | 19.50375 | 69.45184 | 34879 ft | 531 kts | 116° |
| 2026-05-05 02:34 | 19.47167 | 69.52233 | 34876 ft | 530 kts | 116° |
| 2026-05-05 02:34 | 19.43945 | 69.59271 | 34868 ft | 531 kts | 116° |
| 2026-05-05 02:35 | 19.40713 | 69.66308 | 34872 ft | 531 kts | 116° |
| 2026-05-05 02:35 | 19.37477 | 69.73342 | 34872 ft | 531 kts | 116° |
| 2026-05-05 02:36 | 19.34237 | 69.80375 | 34875 ft | 531 kts | 116° |
| 2026-05-05 02:36 | 19.30994 | 69.87407 | 34878 ft | 531 kts | 116° |
| 2026-05-05 02:37 | 19.27753 | 69.94426 | 34887 ft | 530 kts | 116° |
| 2026-05-05 02:37 | 19.24511 | 70.01439 | 34884 ft | 530 kts | 116° |
| 2026-05-05 02:38 | 19.21268 | 70.08446 | 34882 ft | 530 kts | 116° |
| 2026-05-05 02:38 | 19.18028 | 70.15439 | 34878 ft | 529 kts | 116° |
| 2026-05-05 02:39 | 19.14783 | 70.22433 | 34875 ft | 529 kts | 116° |
| 2026-05-05 02:39 | 19.11534 | 70.29426 | 34875 ft | 529 kts | 116° |
| 2026-05-05 02:40 | 19.08286 | 70.36411 | 34876 ft | 529 kts | 116° |
| 2026-05-05 02:40 | 19.05053 | 70.43351 | 34881 ft | 529 kts | 116° |
| 2026-05-05 02:41 | 19.01802 | 70.50325 | 34891 ft | 528 kts | 116° |
| 2026-05-05 02:41 | 18.98554 | 70.57284 | 34888 ft | 528 kts | 116° |
| 2026-05-05 02:42 | 18.95302 | 70.64244 | 34886 ft | 528 kts | 116° |
| 2026-05-05 02:42 | 18.92048 | 70.71198 | 34886 ft | 528 kts | 116° |
| 2026-05-05 02:43 | 18.88790 | 70.78152 | 34882 ft | 527 kts | 116° |
| 2026-05-05 02:43 | 18.85535 | 70.85093 | 34883 ft | 527 kts | 116° |
| 2026-05-05 02:44 | 18.82280 | 70.92026 | 34881 ft | 527 kts | 116° |
| 2026-05-05 02:44 | 18.79016 | 70.98969 | 34885 ft | 527 kts | 116° |
| 2026-05-05 02:45 | 18.75760 | 71.05888 | 34896 ft | 526 kts | 116° |
| 2026-05-05 02:45 | 18.72505 | 71.12796 | 34890 ft | 525 kts | 116° |
| 2026-05-05 02:46 | 18.69251 | 71.19694 | 34885 ft | 525 kts | 116° |
| 2026-05-05 02:46 | 18.66019 | 71.26536 | 34885 ft | 524 kts | 116° |
| 2026-05-05 02:47 | 18.62763 | 71.33424 | 34884 ft | 524 kts | 116° |
| 2026-05-05 02:47 | 18.59509 | 71.40298 | 34883 ft | 524 kts | 116° |
| 2026-05-05 02:48 | 18.56248 | 71.47177 | 34883 ft | 524 kts | 116° |
| 2026-05-05 02:48 | 18.52985 | 71.54055 | 34885 ft | 524 kts | 116° |
| 2026-05-05 02:49 | 18.49722 | 71.60925 | 34893 ft | 524 kts | 116° |
| 2026-05-05 02:49 | 18.46460 | 71.67784 | 34892 ft | 523 kts | 116° |
| 2026-05-05 02:50 | 18.43196 | 71.74639 | 34889 ft | 523 kts | 116° |
| 2026-05-05 02:50 | 18.39950 | 71.81450 | 34886 ft | 523 kts | 116° |
| 2026-05-05 02:51 | 18.36687 | 71.88289 | 34889 ft | 523 kts | 116° |
| 2026-05-05 02:51 | 18.33421 | 71.95125 | 34889 ft | 523 kts | 116° |
| 2026-05-05 02:52 | 18.30154 | 72.01956 | 34889 ft | 523 kts | 116° |
| 2026-05-05 02:52 | 18.26883 | 72.08790 | 34891 ft | 523 kts | 117° |
| 2026-05-05 02:53 | 18.23610 | 72.15618 | 34897 ft | 522 kts | 117° |
| 2026-05-05 02:53 | 18.20360 | 72.22392 | 34894 ft | 522 kts | 117° |
| 2026-05-05 02:54 | 18.17083 | 72.29213 | 34886 ft | 522 kts | 117° |
| 2026-05-05 02:54 | 18.13811 | 72.36017 | 34890 ft | 522 kts | 117° |
| 2026-05-05 02:55 | 18.10536 | 72.42820 | 34886 ft | 521 kts | 117° |
| 2026-05-05 02:55 | 18.07259 | 72.49618 | 34888 ft | 521 kts | 117° |
| 2026-05-05 02:56 | 18.03982 | 72.56411 | 34893 ft | 522 kts | 117° |
| 2026-05-05 02:56 | 18.00696 | 72.63214 | 34889 ft | 522 kts | 117° |
| 2026-05-05 02:57 | 17.97405 | 72.70019 | 34891 ft | 522 kts | 117° |
| 2026-05-05 02:57 | 17.94109 | 72.76827 | 34900 ft | 523 kts | 117° |
| 2026-05-05 02:58 | 17.90813 | 72.83630 | 34897 ft | 523 kts | 117° |
| 2026-05-05 02:58 | 17.87531 | 72.90394 | 34900 ft | 523 kts | 117° |
| 2026-05-05 02:59 | 17.84206 | 72.97240 | 34907 ft | 523 kts | 117° |
| 2026-05-05 02:59 | 17.80897 | 73.04046 | 34908 ft | 523 kts | 117° |
| 2026-05-05 03:00 | 17.77611 | 73.10800 | 34910 ft | 523 kts | 117° |
| 2026-05-05 03:00 | 17.74300 | 73.17599 | 34915 ft | 524 kts | 117° |
| 2026-05-05 03:01 | 17.70984 | 73.24400 | 34927 ft | 524 kts | 117° |
| 2026-05-05 03:01 | 17.67664 | 73.31188 | 34930 ft | 522 kts | 117° |
| 2026-05-05 03:02 | 17.64909 | 73.36818 | 34924 ft | 522 kts | 117° |
| 2026-05-05 03:02 | 17.61596 | 73.43585 | 34934 ft | 521 kts | 117° |
| 2026-05-05 03:03 | 17.58285 | 73.50342 | 34922 ft | 521 kts | 117° |
| 2026-05-05 03:03 | 17.54976 | 73.57087 | 34934 ft | 520 kts | 117° |
| 2026-05-05 03:04 | 17.51665 | 73.63827 | 34931 ft | 520 kts | 117° |
| 2026-05-05 03:04 | 17.48350 | 73.70570 | 34941 ft | 521 kts | 117° |
| 2026-05-05 03:05 | 17.45030 | 73.77318 | 34937 ft | 521 kts | 117° |
| 2026-05-05 03:05 | 17.41709 | 73.84059 | 34949 ft | 521 kts | 117° |
| 2026-05-05 03:06 | 17.38398 | 73.90771 | 34964 ft | 521 kts | 117° |
| 2026-05-05 03:06 | 17.35065 | 73.97522 | 34952 ft | 522 kts | 117° |
| 2026-05-05 03:07 | 17.31734 | 74.04263 | 34962 ft | 521 kts | 118° |
| 2026-05-05 03:07 | 17.28404 | 74.10993 | 34956 ft | 521 kts | 118° |
| 2026-05-05 03:08 | 17.25071 | 74.17725 | 34956 ft | 520 kts | 118° |
| 2026-05-05 03:08 | 17.21739 | 74.24446 | 34949 ft | 520 kts | 118° |
| 2026-05-05 03:09 | 17.18410 | 74.31157 | 34941 ft | 519 kts | 118° |
| 2026-05-05 03:09 | 17.15103 | 74.37823 | 34937 ft | 519 kts | 118° |
| 2026-05-05 03:10 | 17.11776 | 74.44522 | 34951 ft | 519 kts | 118° |
| 2026-05-05 03:10 | 17.08428 | 74.51255 | 34947 ft | 519 kts | 118° |
| 2026-05-05 03:11 | 17.05122 | 74.57897 | 34943 ft | 518 kts | 118° |
| 2026-05-05 03:11 | 17.01794 | 74.64578 | 34940 ft | 518 kts | 118° |
| 2026-05-05 03:12 | 16.98461 | 74.71259 | 34938 ft | 518 kts | 118° |
| 2026-05-05 03:12 | 16.95128 | 74.77934 | 34938 ft | 518 kts | 118° |
| 2026-05-05 03:13 | 16.91788 | 74.84619 | 34933 ft | 518 kts | 118° |
| 2026-05-05 03:13 | 16.88452 | 74.91287 | 34939 ft | 518 kts | 118° |
| 2026-05-05 03:14 | 16.85109 | 74.97962 | 34938 ft | 518 kts | 118° |
| 2026-05-05 03:14 | 16.81769 | 75.04626 | 34944 ft | 518 kts | 118° |
| 2026-05-05 03:15 | 16.78428 | 75.11286 | 34934 ft | 518 kts | 118° |
| 2026-05-05 03:15 | 16.75086 | 75.17939 | 34934 ft | 518 kts | 118° |
| 2026-05-05 03:16 | 16.71762 | 75.24552 | 34935 ft | 518 kts | 118° |
| 2026-05-05 03:16 | 16.68414 | 75.31204 | 34933 ft | 518 kts | 118° |
| 2026-05-05 03:17 | 16.65064 | 75.37855 | 34931 ft | 518 kts | 118° |
| 2026-05-05 03:17 | 16.61714 | 75.44499 | 34926 ft | 518 kts | 118° |
| 2026-05-05 03:18 | 16.58435 | 75.51213 | 34921 ft | 518 kts | 116° |
| 2026-05-05 03:18 | 16.55349 | 75.58007 | 34924 ft | 519 kts | 116° |
| 2026-05-05 03:19 | 16.50690 | 75.68138 | 34932 ft | 519 kts | 116° |
| 2026-05-05 03:19 | 16.47548 | 75.74914 | 34930 ft | 519 kts | 116° |
| 2026-05-05 03:20 | 16.44408 | 75.81680 | 34926 ft | 518 kts | 116° |
| 2026-05-05 03:20 | 16.41267 | 75.88440 | 34941 ft | 518 kts | 116° |
| 2026-05-05 03:21 | 16.38124 | 75.95196 | 34928 ft | 518 kts | 116° |
| 2026-05-05 03:21 | 16.34979 | 76.01947 | 34927 ft | 518 kts | 117° |
| 2026-05-05 03:22 | 16.31819 | 76.08651 | 34932 ft | 518 kts | 117° |
| 2026-05-05 03:22 | 16.28640 | 76.15384 | 34936 ft | 518 kts | 117° |
| 2026-05-05 03:23 | 16.25465 | 76.22112 | 34946 ft | 517 kts | 117° |
| 2026-05-05 03:23 | 16.22297 | 76.28818 | 34952 ft | 516 kts | 117° |
| 2026-05-05 03:24 | 16.19128 | 76.35521 | 34945 ft | 515 kts | 117° |
| 2026-05-05 03:24 | 16.15963 | 76.42207 | 34941 ft | 514 kts | 117° |
| 2026-05-05 03:25 | 16.12801 | 76.48881 | 34937 ft | 514 kts | 117° |
| 2026-05-05 03:25 | 16.09642 | 76.55543 | 34931 ft | 514 kts | 117° |
| 2026-05-05 03:26 | 16.06495 | 76.62172 | 34933 ft | 514 kts | 117° |
| 2026-05-05 03:26 | 16.03330 | 76.68833 | 34938 ft | 514 kts | 117° |
| 2026-05-05 03:27 | 16.00157 | 76.75504 | 34939 ft | 514 kts | 117° |
| 2026-05-05 03:27 | 15.96984 | 76.82170 | 34941 ft | 515 kts | 117° |
| 2026-05-05 03:28 | 15.93804 | 76.88844 | 34943 ft | 515 kts | 117° |
| 2026-05-05 03:28 | 15.90618 | 76.95522 | 34950 ft | 515 kts | 117° |
| 2026-05-05 03:29 | 15.87434 | 77.02191 | 34947 ft | 515 kts | 117° |
| 2026-05-05 03:29 | 15.84273 | 77.08807 | 34953 ft | 515 kts | 117° |
| 2026-05-05 03:30 | 15.81085 | 77.15471 | 34955 ft | 515 kts | 117° |
| 2026-05-05 03:30 | 15.77897 | 77.22128 | 34951 ft | 514 kts | 117° |
| 2026-05-05 03:31 | 15.74709 | 77.28780 | 34951 ft | 514 kts | 117° |
| 2026-05-05 03:31 | 15.71520 | 77.35429 | 34945 ft | 515 kts | 117° |
| 2026-05-05 03:32 | 15.68346 | 77.42090 | 34955 ft | 515 kts | 117° |
| 2026-05-05 03:32 | 15.65177 | 77.48756 | 34954 ft | 515 kts | 117° |
| 2026-05-05 03:33 | 15.62007 | 77.55410 | 34954 ft | 515 kts | 117° |
| 2026-05-05 03:33 | 15.58828 | 77.62071 | 34963 ft | 515 kts | 117° |
| 2026-05-05 03:34 | 15.55645 | 77.68738 | 34969 ft | 516 kts | 117° |
| 2026-05-05 03:34 | 15.52455 | 77.75411 | 34970 ft | 516 kts | 117° |
| 2026-05-05 03:35 | 15.49293 | 77.82018 | 34968 ft | 515 kts | 117° |
| 2026-05-05 03:35 | 15.46106 | 77.88675 | 34965 ft | 515 kts | 117° |
| 2026-05-05 03:36 | 15.42916 | 77.95329 | 34969 ft | 515 kts | 117° |
| 2026-05-05 03:36 | 15.39725 | 78.01980 | 34953 ft | 515 kts | 117° |
| 2026-05-05 03:37 | 15.36528 | 78.08638 | 34959 ft | 516 kts | 117° |
| 2026-05-05 03:37 | 15.33306 | 78.15283 | 34950 ft | 516 kts | 118° |
| 2026-05-05 03:38 | 15.30053 | 78.21921 | 34959 ft | 516 kts | 118° |
| 2026-05-05 03:38 | 15.26810 | 78.28549 | 34949 ft | 516 kts | 118° |
| 2026-05-05 03:39 | 15.23565 | 78.35181 | 34946 ft | 515 kts | 118° |
| 2026-05-05 03:39 | 15.20324 | 78.41800 | 34938 ft | 515 kts | 118° |
| 2026-05-05 03:40 | 15.17103 | 78.48370 | 34933 ft | 515 kts | 118° |
| 2026-05-05 03:40 | 15.13860 | 78.54979 | 34933 ft | 515 kts | 118° |
| 2026-05-05 03:41 | 15.10611 | 78.61594 | 34931 ft | 515 kts | 118° |
| 2026-05-05 03:41 | 15.07367 | 78.68194 | 34933 ft | 515 kts | 118° |
| 2026-05-05 03:42 | 15.04117 | 78.74800 | 34928 ft | 515 kts | 118° |
| 2026-05-05 03:42 | 15.00885 | 78.81363 | 34926 ft | 515 kts | 118° |
| 2026-05-05 03:43 | 14.97634 | 78.87960 | 34927 ft | 514 kts | 118° |
| 2026-05-05 03:43 | 14.94382 | 78.94552 | 34922 ft | 514 kts | 118° |
| 2026-05-05 03:44 | 14.91130 | 79.01136 | 34918 ft | 514 kts | 118° |
| 2026-05-05 03:44 | 14.87875 | 79.07723 | 34918 ft | 515 kts | 118° |
| 2026-05-05 03:45 | 14.84617 | 79.14310 | 34912 ft | 515 kts | 118° |
| 2026-05-05 03:45 | 14.81354 | 79.20900 | 34913 ft | 515 kts | 118° |